sensor_id;sensor_type;location;lat;lon;timestamp;temperature;humidity
2873;DHT22;1444;49.166;7.312;2023-12-22T00:02:19;10.00;99.90
2873;DHT22;1444;49.166;7.312;2023-12-22T00:04:46;9.90;99.90
2873;DHT22;1444;49.166;7.312;2023-12-22T00:07:14;9.90;99.90
2873;DHT22;1444;49.166;7.312;2023-12-22T00:09:42;9.80;99.90
2873;DHT22;1444;49.166;7.312;2023-12-22T00:12:08;9.80;99.90
2873;DHT22;1444;49.166;7.312;2023-12-22T00:14:35;9.90;99.90
2873;DHT22;1444;49.166;7.312;2023-12-22T00:17:03;9.90;99.90
2873;DHT22;1444;49.166;7.312;2023-12-22T00:19:30;9.90;99.90
2873;DHT22;1444;49.166;7.312;2023-12-22T00:21:56;9.90;99.90
2873;DHT22;1444;49.166;7.312;2023-12-22T00:24:25;9.80;99.90
2873;DHT22;1444;49.166;7.312;2023-12-22T00:26:52;9.70;99.90
2873;DHT22;1444;49.166;7.312;2023-12-22T00:29:18;9.70;99.90
2873;DHT22;1444;49.166;7.312;2023-12-22T00:31:45;9.70;99.90
2873;DHT22;1444;49.166;7.312;2023-12-22T00:34:12;9.60;99.90
2873;DHT22;1444;49.166;7.312;2023-12-22T00:36:39;9.60;99.90
2873;DHT22;1444;49.166;7.312;2023-12-22T00:39:06;9.50;99.90
2873;DHT22;1444;49.166;7.312;2023-12-22T00:41:35;9.60;99.90
2873;DHT22;1444;49.166;7.312;2023-12-22T00:44:02;9.50;99.90
2873;DHT22;1444;49.166;7.312;2023-12-22T00:46:29;9.50;99.90
2873;DHT22;1444;49.166;7.312;2023-12-22T00:48:56;9.40;99.90
2873;DHT22;1444;49.166;7.312;2023-12-22T00:51:22;9.50;99.90
2873;DHT22;1444;49.166;7.312;2023-12-22T00:53:50;9.40;99.90
2873;DHT22;1444;49.166;7.312;2023-12-22T00:56:16;9.50;99.90
2873;DHT22;1444;49.166;7.312;2023-12-22T00:58:44;9.50;99.90
2873;DHT22;1444;49.166;7.312;2023-12-22T01:01:11;9.50;99.90
2873;DHT22;1444;49.166;7.312;2023-12-22T01:03:38;9.50;99.90
2873;DHT22;1444;49.166;7.312;2023-12-22T01:06:05;9.50;99.90
2873;DHT22;1444;49.166;7.312;2023-12-22T01:08:31;9.50;99.90
2873;DHT22;1444;49.166;7.312;2023-12-22T01:10:58;9.60;99.90
2873;DHT22;1444;49.166;7.312;2023-12-22T01:13:25;9.60;99.90
2873;DHT22;1444;49.166;7.312;2023-12-22T01:15:53;9.50;99.90
2873;DHT22;1444;49.166;7.312;2023-12-22T01:18:20;9.60;99.90
2873;DHT22;1444;49.166;7.312;2023-12-22T01:20:47;9.60;99.90
2873;DHT22;1444;49.166;7.312;2023-12-22T01:23:14;9.60;99.90
2873;DHT22;1444;49.166;7.312;2023-12-22T01:25:41;9.60;99.90
2873;DHT22;1444;49.166;7.312;2023-12-22T01:28:08;9.60;99.90
2873;DHT22;1444;49.166;7.312;2023-12-22T01:30:35;9.60;99.90
2873;DHT22;1444;49.166;7.312;2023-12-22T01:33:03;9.60;99.90
2873;DHT22;1444;49.166;7.312;2023-12-22T01:35:30;9.70;99.90
2873;DHT22;1444;49.166;7.312;2023-12-22T01:37:57;9.70;99.90
2873;DHT22;1444;49.166;7.312;2023-12-22T01:40:24;9.80;99.90
2873;DHT22;1444;49.166;7.312;2023-12-22T01:42:51;9.80;99.90
2873;DHT22;1444;49.166;7.312;2023-12-22T01:45:17;9.70;99.90
2873;DHT22;1444;49.166;7.312;2023-12-22T01:47:45;9.70;99.90
2873;DHT22;1444;49.166;7.312;2023-12-22T01:50:14;9.60;99.90
2873;DHT22;1444;49.166;7.312;2023-12-22T01:52:42;9.60;99.90
2873;DHT22;1444;49.166;7.312;2023-12-22T01:55:11;9.60;99.90
2873;DHT22;1444;49.166;7.312;2023-12-22T01:57:39;9.60;99.90
2873;DHT22;1444;49.166;7.312;2023-12-22T02:00:08;9.50;99.90
2873;DHT22;1444;49.166;7.312;2023-12-22T02:02:35;9.50;99.90
2873;DHT22;1444;49.166;7.312;2023-12-22T02:05:04;9.40;99.90
2873;DHT22;1444;49.166;7.312;2023-12-22T02:07:32;9.40;99.90
2873;DHT22;1444;49.166;7.312;2023-12-22T02:10:00;9.40;99.90
2873;DHT22;1444;49.166;7.312;2023-12-22T02:12:29;9.40;99.90
2873;DHT22;1444;49.166;7.312;2023-12-22T02:14:55;9.50;99.90
2873;DHT22;1444;49.166;7.312;2023-12-22T02:17:26;9.40;99.90
2873;DHT22;1444;49.166;7.312;2023-12-22T02:19:56;9.40;99.90
2873;DHT22;1444;49.166;7.312;2023-12-22T02:22:23;9.40;99.90
2873;DHT22;1444;49.166;7.312;2023-12-22T02:24:51;9.30;99.90
2873;DHT22;1444;49.166;7.312;2023-12-22T02:27:25;9.30;99.90
2873;DHT22;1444;49.166;7.312;2023-12-22T02:29:57;9.30;99.90
2873;DHT22;1444;49.166;7.312;2023-12-22T02:32:30;9.30;99.90
2873;DHT22;1444;49.166;7.312;2023-12-22T02:34:58;9.30;99.90
2873;DHT22;1444;49.166;7.312;2023-12-22T02:37:28;9.30;99.90
2873;DHT22;1444;49.166;7.312;2023-12-22T02:39:58;9.30;99.90
2873;DHT22;1444;49.166;7.312;2023-12-22T02:42:25;9.30;99.90
2873;DHT22;1444;49.166;7.312;2023-12-22T02:44:56;9.30;99.90
2873;DHT22;1444;49.166;7.312;2023-12-22T02:47:23;9.30;99.90
2873;DHT22;1444;49.166;7.312;2023-12-22T02:49:50;9.30;99.90
2873;DHT22;1444;49.166;7.312;2023-12-22T02:52:17;9.30;99.90
2873;DHT22;1444;49.166;7.312;2023-12-22T02:54:43;9.30;99.90
2873;DHT22;1444;49.166;7.312;2023-12-22T02:57:13;9.30;99.90
2873;DHT22;1444;49.166;7.312;2023-12-22T02:59:40;9.30;99.90
2873;DHT22;1444;49.166;7.312;2023-12-22T03:02:07;9.40;99.90
2873;DHT22;1444;49.166;7.312;2023-12-22T03:04:34;9.40;99.90
2873;DHT22;1444;49.166;7.312;2023-12-22T03:09:28;9.50;99.90
2873;DHT22;1444;49.166;7.312;2023-12-22T03:11:55;9.50;99.90
2873;DHT22;1444;49.166;7.312;2023-12-22T03:14:28;9.60;99.90
2873;DHT22;1444;49.166;7.312;2023-12-22T03:16:55;9.40;99.90
2873;DHT22;1444;49.166;7.312;2023-12-22T03:19:22;9.40;99.90
2873;DHT22;1444;49.166;7.312;2023-12-22T03:21:49;9.30;99.90
2873;DHT22;1444;49.166;7.312;2023-12-22T03:24:16;9.20;99.90
2873;DHT22;1444;49.166;7.312;2023-12-22T03:26:44;9.20;99.90
2873;DHT22;1444;49.166;7.312;2023-12-22T03:29:11;9.20;99.90
2873;DHT22;1444;49.166;7.312;2023-12-22T03:31:39;9.20;99.90
2873;DHT22;1444;49.166;7.312;2023-12-22T03:34:06;9.20;99.90
2873;DHT22;1444;49.166;7.312;2023-12-22T03:36:33;9.10;99.90
2873;DHT22;1444;49.166;7.312;2023-12-22T03:39:00;9.10;99.90
2873;DHT22;1444;49.166;7.312;2023-12-22T03:43:55;9.10;99.90
2873;DHT22;1444;49.166;7.312;2023-12-22T03:46:22;9.10;99.90
2873;DHT22;1444;49.166;7.312;2023-12-22T03:48:50;9.00;99.90
2873;DHT22;1444;49.166;7.312;2023-12-22T03:51:19;9.00;99.90
2873;DHT22;1444;49.166;7.312;2023-12-22T03:53:45;9.00;99.90
2873;DHT22;1444;49.166;7.312;2023-12-22T03:56:12;9.10;99.90
2873;DHT22;1444;49.166;7.312;2023-12-22T03:58:39;9.10;99.90
2873;DHT22;1444;49.166;7.312;2023-12-22T04:01:06;9.10;99.90
2873;DHT22;1444;49.166;7.312;2023-12-22T04:03:33;9.10;99.90
2873;DHT22;1444;49.166;7.312;2023-12-22T04:06:03;9.10;99.90
2873;DHT22;1444;49.166;7.312;2023-12-22T04:08:30;9.20;99.90
2873;DHT22;1444;49.166;7.312;2023-12-22T04:10:57;9.10;99.90
2873;DHT22;1444;49.166;7.312;2023-12-22T04:13:24;9.10;99.90
2873;DHT22;1444;49.166;7.312;2023-12-22T04:18:17;9.20;99.90
2873;DHT22;1444;49.166;7.312;2023-12-22T04:20:44;9.10;99.90
2873;DHT22;1444;49.166;7.312;2023-12-22T04:23:12;9.10;99.90
2873;DHT22;1444;49.166;7.312;2023-12-22T04:25:39;9.10;99.90
2873;DHT22;1444;49.166;7.312;2023-12-22T04:28:06;9.10;99.90
2873;DHT22;1444;49.166;7.312;2023-12-22T04:30:33;9.10;99.90
2873;DHT22;1444;49.166;7.312;2023-12-22T04:33:01;9.10;99.90
2873;DHT22;1444;49.166;7.312;2023-12-22T04:35:27;9.20;99.90
2873;DHT22;1444;49.166;7.312;2023-12-22T04:37:54;9.10;99.90
2873;DHT22;1444;49.166;7.312;2023-12-22T04:40:23;9.10;99.90
2873;DHT22;1444;49.166;7.312;2023-12-22T04:42:50;9.10;99.90
2873;DHT22;1444;49.166;7.312;2023-12-22T04:45:16;9.10;99.90
2873;DHT22;1444;49.166;7.312;2023-12-22T04:50:11;9.20;99.90
2873;DHT22;1444;49.166;7.312;2023-12-22T04:52:37;9.20;99.90
2873;DHT22;1444;49.166;7.312;2023-12-22T04:55:05;9.20;99.90
2873;DHT22;1444;49.166;7.312;2023-12-22T04:57:33;9.20;99.90
2873;DHT22;1444;49.166;7.312;2023-12-22T05:00:00;9.20;99.90
2873;DHT22;1444;49.166;7.312;2023-12-22T05:02:26;9.20;99.90
2873;DHT22;1444;49.166;7.312;2023-12-22T05:04:54;9.20;99.90
2873;DHT22;1444;49.166;7.312;2023-12-22T05:07:21;9.30;99.90
2873;DHT22;1444;49.166;7.312;2023-12-22T05:09:48;9.30;99.90
2873;DHT22;1444;49.166;7.312;2023-12-22T05:12:14;9.30;99.90
2873;DHT22;1444;49.166;7.312;2023-12-22T05:14:43;9.40;99.90
2873;DHT22;1444;49.166;7.312;2023-12-22T05:17:10;9.40;99.90
2873;DHT22;1444;49.166;7.312;2023-12-22T05:19:36;9.40;99.90
2873;DHT22;1444;49.166;7.312;2023-12-22T05:22:04;9.30;99.90
2873;DHT22;1444;49.166;7.312;2023-12-22T05:26:57;9.40;99.90
2873;DHT22;1444;49.166;7.312;2023-12-22T05:29:24;9.40;99.90
2873;DHT22;1444;49.166;7.312;2023-12-22T05:31:52;9.50;99.90
2873;DHT22;1444;49.166;7.312;2023-12-22T05:34:19;9.40;99.90
2873;DHT22;1444;49.166;7.312;2023-12-22T05:36:46;9.50;99.90
2873;DHT22;1444;49.166;7.312;2023-12-22T05:39:13;9.50;99.90
2873;DHT22;1444;49.166;7.312;2023-12-22T05:41:40;9.40;99.90
2873;DHT22;1444;49.166;7.312;2023-12-22T05:44:07;9.40;99.90
2873;DHT22;1444;49.166;7.312;2023-12-22T05:46:35;9.40;99.90
2873;DHT22;1444;49.166;7.312;2023-12-22T05:49:04;9.40;99.90
2873;DHT22;1444;49.166;7.312;2023-12-22T05:51:36;9.40;99.90
2873;DHT22;1444;49.166;7.312;2023-12-22T05:54:03;9.50;99.90
2873;DHT22;1444;49.166;7.312;2023-12-22T05:56:30;9.50;99.90
2873;DHT22;1444;49.166;7.312;2023-12-22T05:58:58;9.40;99.90
2873;DHT22;1444;49.166;7.312;2023-12-22T06:01:25;9.40;99.90
2873;DHT22;1444;49.166;7.312;2023-12-22T06:03:52;9.40;99.90
2873;DHT22;1444;49.166;7.312;2023-12-22T06:06:20;9.40;99.90
2873;DHT22;1444;49.166;7.312;2023-12-22T06:08:47;9.40;99.90
2873;DHT22;1444;49.166;7.312;2023-12-22T06:11:14;9.20;99.90
2873;DHT22;1444;49.166;7.312;2023-12-22T06:13:41;9.20;99.90
2873;DHT22;1444;49.166;7.312;2023-12-22T06:16:11;9.20;99.90
2873;DHT22;1444;49.166;7.312;2023-12-22T06:18:38;9.20;99.90
2873;DHT22;1444;49.166;7.312;2023-12-22T06:21:05;9.20;99.90
2873;DHT22;1444;49.166;7.312;2023-12-22T06:23:33;9.30;99.90
2873;DHT22;1444;49.166;7.312;2023-12-22T06:26:00;9.20;99.90
2873;DHT22;1444;49.166;7.312;2023-12-22T06:28:28;9.10;99.90
2873;DHT22;1444;49.166;7.312;2023-12-22T06:30:55;9.10;99.90
2873;DHT22;1444;49.166;7.312;2023-12-22T06:33:21;9.10;99.90
2873;DHT22;1444;49.166;7.312;2023-12-22T06:35:48;9.20;99.90
2873;DHT22;1444;49.166;7.312;2023-12-22T06:38:19;9.10;99.90
2873;DHT22;1444;49.166;7.312;2023-12-22T06:40:47;9.20;99.90
2873;DHT22;1444;49.166;7.312;2023-12-22T06:45:41;9.30;99.90
2873;DHT22;1444;49.166;7.312;2023-12-22T06:48:07;9.20;99.90
2873;DHT22;1444;49.166;7.312;2023-12-22T06:50:35;9.20;99.90
2873;DHT22;1444;49.166;7.312;2023-12-22T06:53:03;9.30;99.90
2873;DHT22;1444;49.166;7.312;2023-12-22T06:55:30;9.30;99.90
2873;DHT22;1444;49.166;7.312;2023-12-22T06:57:58;9.30;99.90
2873;DHT22;1444;49.166;7.312;2023-12-22T07:00:25;9.30;99.90
2873;DHT22;1444;49.166;7.312;2023-12-22T07:02:51;9.30;99.90
2873;DHT22;1444;49.166;7.312;2023-12-22T07:05:34;9.40;99.90
2873;DHT22;1444;49.166;7.312;2023-12-22T07:08:04;9.40;99.90
2873;DHT22;1444;49.166;7.312;2023-12-22T07:10:31;9.40;99.90
2873;DHT22;1444;49.166;7.312;2023-12-22T07:12:59;9.40;99.90
2873;DHT22;1444;49.166;7.312;2023-12-22T07:15:26;9.40;99.90
2873;DHT22;1444;49.166;7.312;2023-12-22T07:17:54;9.50;99.90
2873;DHT22;1444;49.166;7.312;2023-12-22T07:20:20;9.40;99.90
2873;DHT22;1444;49.166;7.312;2023-12-22T07:22:47;9.50;99.90
2873;DHT22;1444;49.166;7.312;2023-12-22T07:25:14;9.40;99.90
2873;DHT22;1444;49.166;7.312;2023-12-22T07:27:41;9.40;99.90
2873;DHT22;1444;49.166;7.312;2023-12-22T07:30:10;9.40;99.90
2873;DHT22;1444;49.166;7.312;2023-12-22T07:32:42;9.40;99.90
2873;DHT22;1444;49.166;7.312;2023-12-22T07:35:09;9.50;99.90
2873;DHT22;1444;49.166;7.312;2023-12-22T07:37:36;9.50;99.90
2873;DHT22;1444;49.166;7.312;2023-12-22T07:40:04;9.50;99.90
2873;DHT22;1444;49.166;7.312;2023-12-22T07:42:31;9.60;99.90
2873;DHT22;1444;49.166;7.312;2023-12-22T07:44:58;9.60;99.90
2873;DHT22;1444;49.166;7.312;2023-12-22T07:47:26;9.60;99.90
2873;DHT22;1444;49.166;7.312;2023-12-22T07:49:53;9.60;99.90
2873;DHT22;1444;49.166;7.312;2023-12-22T07:52:19;9.60;99.90
2873;DHT22;1444;49.166;7.312;2023-12-22T07:54:46;9.60;99.90
2873;DHT22;1444;49.166;7.312;2023-12-22T07:57:13;9.60;99.90
2873;DHT22;1444;49.166;7.312;2023-12-22T07:59:40;9.60;99.90
2873;DHT22;1444;49.166;7.312;2023-12-22T08:02:08;9.60;99.90
2873;DHT22;1444;49.166;7.312;2023-12-22T08:04:36;9.60;99.90
2873;DHT22;1444;49.166;7.312;2023-12-22T08:07:03;9.60;99.90
2873;DHT22;1444;49.166;7.312;2023-12-22T08:09:30;9.60;99.90
2873;DHT22;1444;49.166;7.312;2023-12-22T08:11:58;9.60;99.90
2873;DHT22;1444;49.166;7.312;2023-12-22T08:14:25;9.70;99.90
2873;DHT22;1444;49.166;7.312;2023-12-22T08:16:51;9.70;99.90
2873;DHT22;1444;49.166;7.312;2023-12-22T08:19:19;9.70;99.90
2873;DHT22;1444;49.166;7.312;2023-12-22T08:21:47;9.70;99.90
2873;DHT22;1444;49.166;7.312;2023-12-22T08:24:14;9.70;99.90
2873;DHT22;1444;49.166;7.312;2023-12-22T08:26:41;9.80;99.90
2873;DHT22;1444;49.166;7.312;2023-12-22T08:29:08;9.80;99.90
2873;DHT22;1444;49.166;7.312;2023-12-22T08:34:02;9.80;99.90
2873;DHT22;1444;49.166;7.312;2023-12-22T08:36:29;9.70;99.90
2873;DHT22;1444;49.166;7.312;2023-12-22T08:38:57;9.70;99.90
2873;DHT22;1444;49.166;7.312;2023-12-22T08:41:24;9.80;99.90
2873;DHT22;1444;49.166;7.312;2023-12-22T08:46:19;9.80;99.90
2873;DHT22;1444;49.166;7.312;2023-12-22T08:48:46;9.80;99.90
2873;DHT22;1444;49.166;7.312;2023-12-22T08:51:12;9.80;99.90
2873;DHT22;1444;49.166;7.312;2023-12-22T08:53:40;9.80;99.90
2873;DHT22;1444;49.166;7.312;2023-12-22T08:56:08;9.80;99.90
2873;DHT22;1444;49.166;7.312;2023-12-22T08:58:35;9.80;99.90
2873;DHT22;1444;49.166;7.312;2023-12-22T09:01:02;9.90;99.90
2873;DHT22;1444;49.166;7.312;2023-12-22T09:03:32;9.90;99.90
2873;DHT22;1444;49.166;7.312;2023-12-22T09:06:01;9.90;99.90
2873;DHT22;1444;49.166;7.312;2023-12-22T09:08:28;9.90;99.90
2873;DHT22;1444;49.166;7.312;2023-12-22T09:10:55;9.90;99.90
2873;DHT22;1444;49.166;7.312;2023-12-22T09:13:22;9.80;99.90
2873;DHT22;1444;49.166;7.312;2023-12-22T09:15:50;9.90;99.90
2873;DHT22;1444;49.166;7.312;2023-12-22T09:20:44;9.90;99.90
2873;DHT22;1444;49.166;7.312;2023-12-22T09:23:10;9.80;99.90
2873;DHT22;1444;49.166;7.312;2023-12-22T09:25:37;9.80;99.90
2873;DHT22;1444;49.166;7.312;2023-12-22T09:28:05;9.80;99.90
2873;DHT22;1444;49.166;7.312;2023-12-22T09:30:34;9.80;99.90
2873;DHT22;1444;49.166;7.312;2023-12-22T09:33:00;9.90;99.90
2873;DHT22;1444;49.166;7.312;2023-12-22T09:35:27;9.80;99.90
2873;DHT22;1444;49.166;7.312;2023-12-22T09:37:54;9.80;99.90
2873;DHT22;1444;49.166;7.312;2023-12-22T09:40:21;9.90;99.90
2873;DHT22;1444;49.166;7.312;2023-12-22T09:42:49;9.90;99.90
2873;DHT22;1444;49.166;7.312;2023-12-22T09:45:17;9.90;99.90
2873;DHT22;1444;49.166;7.312;2023-12-22T09:47:47;9.90;99.90
2873;DHT22;1444;49.166;7.312;2023-12-22T09:50:15;9.90;99.90
2873;DHT22;1444;49.166;7.312;2023-12-22T09:55:11;9.90;99.90
2873;DHT22;1444;49.166;7.312;2023-12-22T09:57:39;9.90;99.90
2873;DHT22;1444;49.166;7.312;2023-12-22T10:00:08;9.90;99.90
2873;DHT22;1444;49.166;7.312;2023-12-22T10:02:36;9.90;99.90
2873;DHT22;1444;49.166;7.312;2023-12-22T10:05:05;9.90;99.90
2873;DHT22;1444;49.166;7.312;2023-12-22T10:07:33;9.90;99.90
2873;DHT22;1444;49.166;7.312;2023-12-22T10:10:00;9.90;99.90
2873;DHT22;1444;49.166;7.312;2023-12-22T10:12:29;10.00;99.90
2873;DHT22;1444;49.166;7.312;2023-12-22T10:14:59;10.00;99.90
2873;DHT22;1444;49.166;7.312;2023-12-22T10:17:27;10.00;99.90
2873;DHT22;1444;49.166;7.312;2023-12-22T10:19:55;10.00;99.90
2873;DHT22;1444;49.166;7.312;2023-12-22T10:22:23;10.00;99.90
2873;DHT22;1444;49.166;7.312;2023-12-22T10:24:50;10.00;99.90
2873;DHT22;1444;49.166;7.312;2023-12-22T10:27:18;9.90;99.90
2873;DHT22;1444;49.166;7.312;2023-12-22T10:29:48;9.90;99.90
2873;DHT22;1444;49.166;7.312;2023-12-22T10:32:15;9.90;99.90
2873;DHT22;1444;49.166;7.312;2023-12-22T10:34:42;9.90;99.90
2873;DHT22;1444;49.166;7.312;2023-12-22T10:37:10;9.90;99.90
2873;DHT22;1444;49.166;7.312;2023-12-22T10:39:40;9.80;99.90
2873;DHT22;1444;49.166;7.312;2023-12-22T10:42:07;9.80;99.90
2873;DHT22;1444;49.166;7.312;2023-12-22T10:44:34;9.80;99.90
2873;DHT22;1444;49.166;7.312;2023-12-22T10:47:01;9.70;99.90
2873;DHT22;1444;49.166;7.312;2023-12-22T10:49:30;9.80;99.90
2873;DHT22;1444;49.166;7.312;2023-12-22T10:51:57;9.80;99.90
2873;DHT22;1444;49.166;7.312;2023-12-22T10:54:24;9.80;99.90
2873;DHT22;1444;49.166;7.312;2023-12-22T10:56:57;9.60;99.90
2873;DHT22;1444;49.166;7.312;2023-12-22T10:59:29;9.70;99.90
2873;DHT22;1444;49.166;7.312;2023-12-22T11:01:57;9.60;99.90
2873;DHT22;1444;49.166;7.312;2023-12-22T11:04:29;9.70;99.90
2873;DHT22;1444;49.166;7.312;2023-12-22T11:06:59;9.70;99.90
2873;DHT22;1444;49.166;7.312;2023-12-22T11:09:31;9.70;99.90
2873;DHT22;1444;49.166;7.312;2023-12-22T11:12:00;9.70;99.90
2873;DHT22;1444;49.166;7.312;2023-12-22T11:14:29;9.70;99.90
2873;DHT22;1444;49.166;7.312;2023-12-22T11:16:59;9.70;99.90
2873;DHT22;1444;49.166;7.312;2023-12-22T11:19:27;9.70;99.90
2873;DHT22;1444;49.166;7.312;2023-12-22T11:21:56;9.60;99.90
2873;DHT22;1444;49.166;7.312;2023-12-22T11:24:25;9.70;99.90
2873;DHT22;1444;49.166;7.312;2023-12-22T11:26:54;9.80;99.90
2873;DHT22;1444;49.166;7.312;2023-12-22T11:29:26;9.80;99.90
2873;DHT22;1444;49.166;7.312;2023-12-22T11:31:54;9.80;99.90
2873;DHT22;1444;49.166;7.312;2023-12-22T11:36:52;9.70;99.90
2873;DHT22;1444;49.166;7.312;2023-12-22T11:39:20;9.80;99.90
2873;DHT22;1444;49.166;7.312;2023-12-22T11:41:48;9.90;99.90
2873;DHT22;1444;49.166;7.312;2023-12-22T11:44:17;9.90;99.90
2873;DHT22;1444;49.166;7.312;2023-12-22T11:46:45;9.90;99.90
2873;DHT22;1444;49.166;7.312;2023-12-22T11:49:12;10.00;99.90
2873;DHT22;1444;49.166;7.312;2023-12-22T11:51:39;10.10;99.90
2873;DHT22;1444;49.166;7.312;2023-12-22T11:57:30;10.20;99.90
2873;DHT22;1444;49.166;7.312;2023-12-22T11:59:58;10.20;99.90
2873;DHT22;1444;49.166;7.312;2023-12-22T12:02:29;10.20;99.90
2873;DHT22;1444;49.166;7.312;2023-12-22T12:07:43;10.40;99.90
2873;DHT22;1444;49.166;7.312;2023-12-22T12:10:51;10.40;99.90
2873;DHT22;1444;49.166;7.312;2023-12-22T12:13:23;10.40;99.90
2873;DHT22;1444;49.166;7.312;2023-12-22T12:15:51;10.50;99.90
2873;DHT22;1444;49.166;7.312;2023-12-22T12:18:23;10.60;99.90
2873;DHT22;1444;49.166;7.312;2023-12-22T12:23:17;10.60;99.90
2873;DHT22;1444;49.166;7.312;2023-12-22T12:25:44;10.70;99.90
2873;DHT22;1444;49.166;7.312;2023-12-22T12:28:11;10.70;99.90
2873;DHT22;1444;49.166;7.312;2023-12-22T12:30:38;10.70;99.90
2873;DHT22;1444;49.166;7.312;2023-12-22T12:33:07;10.80;99.90
2873;DHT22;1444;49.166;7.312;2023-12-22T12:35:37;10.90;99.90
2873;DHT22;1444;49.166;7.312;2023-12-22T12:38:04;10.90;99.90
2873;DHT22;1444;49.166;7.312;2023-12-22T12:40:32;10.90;99.90
2873;DHT22;1444;49.166;7.312;2023-12-22T12:43:01;11.00;99.90
2873;DHT22;1444;49.166;7.312;2023-12-22T12:45:29;11.00;99.90
2873;DHT22;1444;49.166;7.312;2023-12-22T12:47:56;11.00;99.90
2873;DHT22;1444;49.166;7.312;2023-12-22T12:50:24;10.90;99.90
2873;DHT22;1444;49.166;7.312;2023-12-22T12:52:53;11.00;99.90
2873;DHT22;1444;49.166;7.312;2023-12-22T12:55:21;11.00;99.90
2873;DHT22;1444;49.166;7.312;2023-12-22T12:57:48;11.00;99.90
2873;DHT22;1444;49.166;7.312;2023-12-22T13:00:16;11.00;99.90
2873;DHT22;1444;49.166;7.312;2023-12-22T13:02:43;10.80;99.90
2873;DHT22;1444;49.166;7.312;2023-12-22T13:05:20;11.00;99.90
2873;DHT22;1444;49.166;7.312;2023-12-22T13:07:47;10.90;99.90
2873;DHT22;1444;49.166;7.312;2023-12-22T13:10:21;10.90;99.90
2873;DHT22;1444;49.166;7.312;2023-12-22T13:12:49;11.00;99.90
2873;DHT22;1444;49.166;7.312;2023-12-22T13:15:16;11.00;99.90
2873;DHT22;1444;49.166;7.312;2023-12-22T13:17:43;11.00;99.90
2873;DHT22;1444;49.166;7.312;2023-12-22T13:20:11;11.10;99.90
2873;DHT22;1444;49.166;7.312;2023-12-22T13:22:38;11.10;99.90
2873;DHT22;1444;49.166;7.312;2023-12-22T13:25:06;11.00;99.90
2873;DHT22;1444;49.166;7.312;2023-12-22T13:27:45;11.10;99.90
2873;DHT22;1444;49.166;7.312;2023-12-22T13:30:12;11.20;99.90
2873;DHT22;1444;49.166;7.312;2023-12-22T13:32:40;11.20;99.90
2873;DHT22;1444;49.166;7.312;2023-12-22T13:35:07;11.20;99.90
2873;DHT22;1444;49.166;7.312;2023-12-22T13:37:40;11.30;99.90
2873;DHT22;1444;49.166;7.312;2023-12-22T13:40:08;11.20;99.90
2873;DHT22;1444;49.166;7.312;2023-12-22T13:42:35;11.20;99.90
2873;DHT22;1444;49.166;7.312;2023-12-22T13:45:10;11.20;99.90
2873;DHT22;1444;49.166;7.312;2023-12-22T13:47:40;11.30;99.90
2873;DHT22;1444;49.166;7.312;2023-12-22T13:50:13;11.20;99.90
2873;DHT22;1444;49.166;7.312;2023-12-22T13:52:41;11.20;99.90
2873;DHT22;1444;49.166;7.312;2023-12-22T13:55:10;11.20;99.90
2873;DHT22;1444;49.166;7.312;2023-12-22T13:57:37;11.20;99.90
2873;DHT22;1444;49.166;7.312;2023-12-22T14:00:27;11.20;99.90
2873;DHT22;1444;49.166;7.312;2023-12-22T14:02:55;11.20;99.90
2873;DHT22;1444;49.166;7.312;2023-12-22T14:05:22;11.20;99.90
2873;DHT22;1444;49.166;7.312;2023-12-22T14:10:16;11.20;99.90
2873;DHT22;1444;49.166;7.312;2023-12-22T14:12:43;11.20;99.90
2873;DHT22;1444;49.166;7.312;2023-12-22T14:15:11;11.30;99.90
2873;DHT22;1444;49.166;7.312;2023-12-22T14:17:39;11.30;99.90
2873;DHT22;1444;49.166;7.312;2023-12-22T14:20:08;11.30;99.90
2873;DHT22;1444;49.166;7.312;2023-12-22T14:22:35;11.30;99.90
2873;DHT22;1444;49.166;7.312;2023-12-22T14:25:03;11.30;99.90
2873;DHT22;1444;49.166;7.312;2023-12-22T14:27:30;11.20;99.90
2873;DHT22;1444;49.166;7.312;2023-12-22T14:29:57;11.20;99.90
2873;DHT22;1444;49.166;7.312;2023-12-22T14:32:25;11.20;99.90
2873;DHT22;1444;49.166;7.312;2023-12-22T14:34:53;11.20;99.90
2873;DHT22;1444;49.166;7.312;2023-12-22T14:37:20;11.20;99.90
2873;DHT22;1444;49.166;7.312;2023-12-22T14:39:47;11.30;99.90
2873;DHT22;1444;49.166;7.312;2023-12-22T14:44:41;11.30;99.90
2873;DHT22;1444;49.166;7.312;2023-12-22T14:47:08;11.30;99.90
2873;DHT22;1444;49.166;7.312;2023-12-22T14:49:35;11.30;99.90
2873;DHT22;1444;49.166;7.312;2023-12-22T14:52:03;11.30;99.90
2873;DHT22;1444;49.166;7.312;2023-12-22T14:54:30;11.20;99.90
2873;DHT22;1444;49.166;7.312;2023-12-22T14:56:57;11.20;99.90
2873;DHT22;1444;49.166;7.312;2023-12-22T14:59:24;11.20;99.90
2873;DHT22;1444;49.166;7.312;2023-12-22T15:01:51;11.10;99.90
2873;DHT22;1444;49.166;7.312;2023-12-22T15:04:17;11.20;99.90
2873;DHT22;1444;49.166;7.312;2023-12-22T15:06:46;11.10;99.90
2873;DHT22;1444;49.166;7.312;2023-12-22T15:09:14;11.20;99.90
2873;DHT22;1444;49.166;7.312;2023-12-22T15:11:43;11.20;99.90
2873;DHT22;1444;49.166;7.312;2023-12-22T15:14:10;11.30;99.90
2873;DHT22;1444;49.166;7.312;2023-12-22T15:16:40;11.30;99.90
2873;DHT22;1444;49.166;7.312;2023-12-22T15:19:10;11.30;99.90
2873;DHT22;1444;49.166;7.312;2023-12-22T15:21:37;11.30;99.90
2873;DHT22;1444;49.166;7.312;2023-12-22T15:24:04;11.20;99.90
2873;DHT22;1444;49.166;7.312;2023-12-22T15:26:34;11.20;99.90
2873;DHT22;1444;49.166;7.312;2023-12-22T15:29:02;11.20;99.90
2873;DHT22;1444;49.166;7.312;2023-12-22T15:31:29;11.20;99.90
2873;DHT22;1444;49.166;7.312;2023-12-22T15:33:56;11.10;99.90
2873;DHT22;1444;49.166;7.312;2023-12-22T15:36:23;11.20;99.90
2873;DHT22;1444;49.166;7.312;2023-12-22T15:38:50;11.20;99.90
2873;DHT22;1444;49.166;7.312;2023-12-22T15:41:18;11.20;99.90
2873;DHT22;1444;49.166;7.312;2023-12-22T15:43:46;11.20;99.90
2873;DHT22;1444;49.166;7.312;2023-12-22T15:46:14;11.20;99.90
2873;DHT22;1444;49.166;7.312;2023-12-22T15:48:40;11.10;99.90
2873;DHT22;1444;49.166;7.312;2023-12-22T15:51:08;11.10;99.90
2873;DHT22;1444;49.166;7.312;2023-12-22T15:53:36;11.10;99.90
2873;DHT22;1444;49.166;7.312;2023-12-22T15:56:04;11.10;99.90
2873;DHT22;1444;49.166;7.312;2023-12-22T15:58:32;11.10;99.90
2873;DHT22;1444;49.166;7.312;2023-12-22T16:01:00;11.10;99.90
2873;DHT22;1444;49.166;7.312;2023-12-22T16:03:27;11.10;99.90
2873;DHT22;1444;49.166;7.312;2023-12-22T16:05:54;11.10;99.90
2873;DHT22;1444;49.166;7.312;2023-12-22T16:08:21;11.20;99.90
2873;DHT22;1444;49.166;7.312;2023-12-22T16:10:48;11.10;99.90
2873;DHT22;1444;49.166;7.312;2023-12-22T16:13:15;11.10;99.90
2873;DHT22;1444;49.166;7.312;2023-12-22T16:15:42;11.20;99.90
2873;DHT22;1444;49.166;7.312;2023-12-22T16:20:37;11.10;99.90
2873;DHT22;1444;49.166;7.312;2023-12-22T16:23:04;11.20;99.90
2873;DHT22;1444;49.166;7.312;2023-12-22T16:25:31;11.10;99.90
2873;DHT22;1444;49.166;7.312;2023-12-22T16:27:58;11.10;99.90
2873;DHT22;1444;49.166;7.312;2023-12-22T16:30:24;11.20;99.90
2873;DHT22;1444;49.166;7.312;2023-12-22T16:32:51;11.10;99.90
2873;DHT22;1444;49.166;7.312;2023-12-22T16:35:20;11.10;99.90
2873;DHT22;1444;49.166;7.312;2023-12-22T16:37:47;11.00;99.90
2873;DHT22;1444;49.166;7.312;2023-12-22T16:40:14;11.00;99.90
2873;DHT22;1444;49.166;7.312;2023-12-22T16:42:40;10.90;99.90
2873;DHT22;1444;49.166;7.312;2023-12-22T16:45:09;10.90;99.90
2873;DHT22;1444;49.166;7.312;2023-12-22T16:47:36;10.90;99.90
2873;DHT22;1444;49.166;7.312;2023-12-22T16:50:05;10.90;99.90
2873;DHT22;1444;49.166;7.312;2023-12-22T16:52:33;10.90;99.90
2873;DHT22;1444;49.166;7.312;2023-12-22T16:55:00;10.90;99.90
2873;DHT22;1444;49.166;7.312;2023-12-22T16:57:27;10.90;99.90
2873;DHT22;1444;49.166;7.312;2023-12-22T17:02:21;10.80;99.90